sensor_id;sensor_type;location;lat;lon;timestamp;P1;durP1;ratioP1;P2;durP2;ratioP2
27533;SDS011;14973;51.460;7.008;2022-12-07T00:03:48;45.72;;;25.42;;
27533;SDS011;14973;51.460;7.008;2022-12-07T00:06:16;40.97;;;24.52;;
27533;SDS011;14973;51.460;7.008;2022-12-07T00:08:42;49.90;;;26.38;;
27533;SDS011;14973;51.460;7.008;2022-12-07T00:11:09;43.35;;;25.52;;
27533;SDS011;14973;51.460;7.008;2022-12-07T00:13:37;47.00;;;25.08;;
27533;SDS011;14973;51.460;7.008;2022-12-07T00:16:10;43.97;;;24.95;;
27533;SDS011;14973;51.460;7.008;2022-12-07T00:21:05;50.47;;;25.15;;
27533;SDS011;14973;51.460;7.008;2022-12-07T00:23:34;47.20;;;25.30;;
27533;SDS011;14973;51.460;7.008;2022-12-07T00:26:04;43.40;;;25.35;;
27533;SDS011;14973;51.460;7.008;2022-12-07T00:28:39;49.60;;;27.20;;
27533;SDS011;14973;51.460;7.008;2022-12-07T00:31:10;57.20;;;28.52;;
27533;SDS011;14973;51.460;7.008;2022-12-07T00:33:37;57.60;;;28.40;;
27533;SDS011;14973;51.460;7.008;2022-12-07T00:36:04;55.20;;;28.75;;
27533;SDS011;14973;51.460;7.008;2022-12-07T00:38:32;58.13;;;29.35;;
27533;SDS011;14973;51.460;7.008;2022-12-07T00:41:09;56.10;;;31.40;;
27533;SDS011;14973;51.460;7.008;2022-12-07T00:43:44;64.07;;;33.22;;
27533;SDS011;14973;51.460;7.008;2022-12-07T00:46:10;62.10;;;32.53;;
27533;SDS011;14973;51.460;7.008;2022-12-07T00:48:37;63.28;;;32.95;;
27533;SDS011;14973;51.460;7.008;2022-12-07T00:51:03;56.78;;;31.05;;
27533;SDS011;14973;51.460;7.008;2022-12-07T00:53:30;62.45;;;33.33;;
27533;SDS011;14973;51.460;7.008;2022-12-07T00:55:55;65.00;;;33.65;;
27533;SDS011;14973;51.460;7.008;2022-12-07T00:58:22;56.03;;;32.65;;
27533;SDS011;14973;51.460;7.008;2022-12-07T01:00:48;59.50;;;33.28;;
27533;SDS011;14973;51.460;7.008;2022-12-07T01:03:15;60.38;;;33.50;;
27533;SDS011;14973;51.460;7.008;2022-12-07T01:05:48;68.88;;;33.70;;
27533;SDS011;14973;51.460;7.008;2022-12-07T01:08:16;67.32;;;34.45;;
27533;SDS011;14973;51.460;7.008;2022-12-07T01:10:41;68.65;;;36.80;;
27533;SDS011;14973;51.460;7.008;2022-12-07T01:13:07;75.15;;;37.80;;
27533;SDS011;14973;51.460;7.008;2022-12-07T01:15:33;71.50;;;37.65;;
27533;SDS011;14973;51.460;7.008;2022-12-07T01:17:58;79.10;;;37.92;;
27533;SDS011;14973;51.460;7.008;2022-12-07T01:20:24;72.75;;;37.97;;
27533;SDS011;14973;51.460;7.008;2022-12-07T01:22:49;77.57;;;37.05;;
27533;SDS011;14973;51.460;7.008;2022-12-07T01:25:15;77.57;;;37.35;;
27533;SDS011;14973;51.460;7.008;2022-12-07T01:27:41;72.93;;;37.33;;
27533;SDS011;14973;51.460;7.008;2022-12-07T01:30:07;70.25;;;37.17;;
27533;SDS011;14973;51.460;7.008;2022-12-07T01:32:33;76.40;;;39.05;;
27533;SDS011;14973;51.460;7.008;2022-12-07T01:34:58;76.15;;;37.58;;
27533;SDS011;14973;51.460;7.008;2022-12-07T01:37:24;77.72;;;39.63;;
27533;SDS011;14973;51.460;7.008;2022-12-07T01:39:50;72.22;;;37.08;;
27533;SDS011;14973;51.460;7.008;2022-12-07T01:42:16;82.55;;;38.45;;
27533;SDS011;14973;51.460;7.008;2022-12-07T01:47:42;82.03;;;39.78;;
27533;SDS011;14973;51.460;7.008;2022-12-07T01:50:11;78.25;;;37.95;;
27533;SDS011;14973;51.460;7.008;2022-12-07T01:52:37;87.15;;;38.95;;
27533;SDS011;14973;51.460;7.008;2022-12-07T01:55:07;82.10;;;37.58;;
27533;SDS011;14973;51.460;7.008;2022-12-07T01:57:37;73.93;;;37.28;;
27533;SDS011;14973;51.460;7.008;2022-12-07T02:00:06;75.63;;;38.20;;
27533;SDS011;14973;51.460;7.008;2022-12-07T02:02:34;80.57;;;37.42;;
27533;SDS011;14973;51.460;7.008;2022-12-07T02:05:04;83.85;;;37.72;;
27533;SDS011;14973;51.460;7.008;2022-12-07T02:07:31;69.28;;;35.22;;
27533;SDS011;14973;51.460;7.008;2022-12-07T02:10:15;85.88;;;39.38;;
27533;SDS011;14973;51.460;7.008;2022-12-07T02:12:47;68.45;;;34.72;;
27533;SDS011;14973;51.460;7.008;2022-12-07T02:15:15;78.55;;;36.70;;
27533;SDS011;14973;51.460;7.008;2022-12-07T02:17:47;67.32;;;35.58;;
27533;SDS011;14973;51.460;7.008;2022-12-07T02:30:53;79.72;;;37.30;;
27533;SDS011;14973;51.460;7.008;2022-12-07T02:33:29;74.95;;;39.67;;
27533;SDS011;14973;51.460;7.008;2022-12-07T02:36:05;93.07;;;39.28;;
27533;SDS011;14973;51.460;7.008;2022-12-07T02:38:40;72.50;;;36.58;;
27533;SDS011;14973;51.460;7.008;2022-12-07T02:41:16;75.68;;;39.00;;
27533;SDS011;14973;51.460;7.008;2022-12-07T02:43:56;80.00;;;37.83;;
27533;SDS011;14973;51.460;7.008;2022-12-07T02:46:27;80.57;;;37.28;;
27533;SDS011;14973;51.460;7.008;2022-12-07T02:48:56;81.80;;;38.35;;
27533;SDS011;14973;51.460;7.008;2022-12-07T02:51:24;73.95;;;36.55;;
27533;SDS011;14973;51.460;7.008;2022-12-07T02:53:50;80.82;;;37.55;;
27533;SDS011;14973;51.460;7.008;2022-12-07T03:01:37;76.38;;;36.85;;
27533;SDS011;14973;51.460;7.008;2022-12-07T03:04:40;77.20;;;34.38;;
27533;SDS011;14973;51.460;7.008;2022-12-07T03:07:17;77.10;;;35.20;;
27533;SDS011;14973;51.460;7.008;2022-12-07T03:10:03;73.15;;;34.30;;
27533;SDS011;14973;51.460;7.008;2022-12-07T03:15:26;74.97;;;35.35;;
27533;SDS011;14973;51.460;7.008;2022-12-07T03:17:56;75.50;;;35.55;;
27533;SDS011;14973;51.460;7.008;2022-12-07T03:20:24;78.68;;;36.08;;
27533;SDS011;14973;51.460;7.008;2022-12-07T03:22:52;73.03;;;35.80;;
27533;SDS011;14973;51.460;7.008;2022-12-07T03:25:19;75.22;;;34.45;;
27533;SDS011;14973;51.460;7.008;2022-12-07T03:27:49;78.25;;;35.55;;
27533;SDS011;14973;51.460;7.008;2022-12-07T03:30:23;73.82;;;35.85;;
27533;SDS011;14973;51.460;7.008;2022-12-07T03:32:59;74.88;;;36.22;;
27533;SDS011;14973;51.460;7.008;2022-12-07T03:40:30;75.90;;;36.80;;
27533;SDS011;14973;51.460;7.008;2022-12-07T03:43:10;89.63;;;40.97;;
27533;SDS011;14973;51.460;7.008;2022-12-07T03:45:38;91.97;;;41.45;;
27533;SDS011;14973;51.460;7.008;2022-12-07T03:48:12;92.80;;;39.60;;
27533;SDS011;14973;51.460;7.008;2022-12-07T03:50:54;91.72;;;40.53;;
27533;SDS011;14973;51.460;7.008;2022-12-07T03:53:38;84.03;;;40.00;;
27533;SDS011;14973;51.460;7.008;2022-12-07T03:56:08;90.00;;;41.35;;
27533;SDS011;14973;51.460;7.008;2022-12-07T03:58:35;86.40;;;39.75;;
27533;SDS011;14973;51.460;7.008;2022-12-07T04:01:02;89.65;;;39.30;;
27533;SDS011;14973;51.460;7.008;2022-12-07T04:03:28;83.32;;;42.55;;
27533;SDS011;14973;51.460;7.008;2022-12-07T04:05:53;94.53;;;40.85;;
27533;SDS011;14973;51.460;7.008;2022-12-07T04:08:19;99.18;;;40.80;;
27533;SDS011;14973;51.460;7.008;2022-12-07T04:10:45;86.72;;;39.25;;
27533;SDS011;14973;51.460;7.008;2022-12-07T04:13:10;93.72;;;40.35;;
27533;SDS011;14973;51.460;7.008;2022-12-07T04:15:36;83.05;;;38.38;;
27533;SDS011;14973;51.460;7.008;2022-12-07T04:18:02;83.68;;;37.58;;
27533;SDS011;14973;51.460;7.008;2022-12-07T04:20:27;84.07;;;37.90;;
27533;SDS011;14973;51.460;7.008;2022-12-07T04:22:53;81.78;;;37.20;;
27533;SDS011;14973;51.460;7.008;2022-12-07T04:25:19;76.82;;;37.00;;
27533;SDS011;14973;51.460;7.008;2022-12-07T04:27:44;79.32;;;37.40;;
27533;SDS011;14973;51.460;7.008;2022-12-07T04:30:10;82.57;;;36.30;;
27533;SDS011;14973;51.460;7.008;2022-12-07T04:32:36;76.15;;;35.47;;
27533;SDS011;14973;51.460;7.008;2022-12-07T04:35:02;78.78;;;35.70;;
27533;SDS011;14973;51.460;7.008;2022-12-07T04:37:28;80.15;;;34.50;;
27533;SDS011;14973;51.460;7.008;2022-12-07T04:39:53;69.45;;;32.58;;
27533;SDS011;14973;51.460;7.008;2022-12-07T04:42:19;70.72;;;34.42;;
27533;SDS011;14973;51.460;7.008;2022-12-07T04:44:45;71.93;;;33.92;;
27533;SDS011;14973;51.460;7.008;2022-12-07T04:47:10;70.63;;;32.92;;
27533;SDS011;14973;51.460;7.008;2022-12-07T04:49:36;71.38;;;34.28;;
27533;SDS011;14973;51.460;7.008;2022-12-07T04:52:01;69.05;;;31.52;;
27533;SDS011;14973;51.460;7.008;2022-12-07T04:54:27;68.00;;;33.00;;
27533;SDS011;14973;51.460;7.008;2022-12-07T04:56:53;73.60;;;31.90;;
27533;SDS011;14973;51.460;7.008;2022-12-07T04:59:19;67.50;;;31.38;;
27533;SDS011;14973;51.460;7.008;2022-12-07T05:01:44;71.00;;;30.73;;
27533;SDS011;14973;51.460;7.008;2022-12-07T05:04:10;66.25;;;31.73;;
27533;SDS011;14973;51.460;7.008;2022-12-07T05:06:35;69.57;;;32.40;;
27533;SDS011;14973;51.460;7.008;2022-12-07T05:09:02;66.70;;;31.05;;
27533;SDS011;14973;51.460;7.008;2022-12-07T05:11:28;72.95;;;32.47;;
27533;SDS011;14973;51.460;7.008;2022-12-07T05:14:04;65.53;;;32.88;;
27533;SDS011;14973;51.460;7.008;2022-12-07T05:16:31;73.28;;;33.78;;
27533;SDS011;14973;51.460;7.008;2022-12-07T05:18:57;70.47;;;33.40;;
27533;SDS011;14973;51.460;7.008;2022-12-07T05:21:23;69.10;;;32.45;;
27533;SDS011;14973;51.460;7.008;2022-12-07T05:23:48;75.13;;;31.98;;
27533;SDS011;14973;51.460;7.008;2022-12-07T05:26:14;67.78;;;32.78;;
27533;SDS011;14973;51.460;7.008;2022-12-07T05:28:40;70.95;;;31.92;;
27533;SDS011;14973;51.460;7.008;2022-12-07T05:31:05;69.55;;;31.27;;
27533;SDS011;14973;51.460;7.008;2022-12-07T05:33:31;69.35;;;31.55;;
27533;SDS011;14973;51.460;7.008;2022-12-07T05:35:57;77.65;;;32.20;;
27533;SDS011;14973;51.460;7.008;2022-12-07T05:38:23;74.97;;;32.40;;
27533;SDS011;14973;51.460;7.008;2022-12-07T05:40:50;68.13;;;31.30;;
27533;SDS011;14973;51.460;7.008;2022-12-07T05:43:15;71.13;;;30.60;;
27533;SDS011;14973;51.460;7.008;2022-12-07T05:45:41;71.18;;;30.17;;
27533;SDS011;14973;51.460;7.008;2022-12-07T05:48:06;65.15;;;29.23;;
27533;SDS011;14973;51.460;7.008;2022-12-07T05:50:32;59.88;;;29.27;;
27533;SDS011;14973;51.460;7.008;2022-12-07T05:52:58;62.92;;;27.40;;
27533;SDS011;14973;51.460;7.008;2022-12-07T05:55:23;59.65;;;27.65;;
27533;SDS011;14973;51.460;7.008;2022-12-07T05:57:49;63.42;;;27.20;;
27533;SDS011;14973;51.460;7.008;2022-12-07T06:00:33;60.40;;;28.55;;
27533;SDS011;14973;51.460;7.008;2022-12-07T06:02:59;55.17;;;25.92;;
27533;SDS011;14973;51.460;7.008;2022-12-07T06:05:24;55.50;;;26.65;;
27533;SDS011;14973;51.460;7.008;2022-12-07T06:07:50;61.83;;;26.63;;
27533;SDS011;14973;51.460;7.008;2022-12-07T06:10:16;55.20;;;26.33;;
27533;SDS011;14973;51.460;7.008;2022-12-07T06:12:41;67.90;;;26.13;;
27533;SDS011;14973;51.460;7.008;2022-12-07T06:15:08;49.75;;;24.30;;
27533;SDS011;14973;51.460;7.008;2022-12-07T06:17:35;53.92;;;26.95;;
27533;SDS011;14973;51.460;7.008;2022-12-07T06:20:01;55.55;;;24.05;;
27533;SDS011;14973;51.460;7.008;2022-12-07T06:22:27;66.50;;;25.95;;
27533;SDS011;14973;51.460;7.008;2022-12-07T06:24:53;58.72;;;25.20;;
27533;SDS011;14973;51.460;7.008;2022-12-07T06:27:19;57.38;;;26.90;;
27533;SDS011;14973;51.460;7.008;2022-12-07T06:29:44;54.80;;;24.05;;
27533;SDS011;14973;51.460;7.008;2022-12-07T06:32:10;54.67;;;23.65;;
27533;SDS011;14973;51.460;7.008;2022-12-07T06:34:36;62.58;;;25.55;;
27533;SDS011;14973;51.460;7.008;2022-12-07T06:37:02;51.28;;;24.20;;
27533;SDS011;14973;51.460;7.008;2022-12-07T06:39:28;61.65;;;24.85;;
27533;SDS011;14973;51.460;7.008;2022-12-07T06:41:54;61.00;;;25.05;;
27533;SDS011;14973;51.460;7.008;2022-12-07T06:44:20;57.35;;;22.25;;
27533;SDS011;14973;51.460;7.008;2022-12-07T06:46:47;56.72;;;23.08;;
27533;SDS011;14973;51.460;7.008;2022-12-07T06:49:13;56.25;;;23.33;;
27533;SDS011;14973;51.460;7.008;2022-12-07T06:51:39;58.55;;;24.05;;
27533;SDS011;14973;51.460;7.008;2022-12-07T06:54:08;52.85;;;22.48;;
27533;SDS011;14973;51.460;7.008;2022-12-07T06:56:34;48.95;;;21.02;;
27533;SDS011;14973;51.460;7.008;2022-12-07T06:59:00;53.50;;;21.52;;
27533;SDS011;14973;51.460;7.008;2022-12-07T07:01:26;45.80;;;20.95;;
27533;SDS011;14973;51.460;7.008;2022-12-07T07:03:51;55.63;;;21.35;;
27533;SDS011;14973;51.460;7.008;2022-12-07T07:06:17;47.20;;;19.13;;
27533;SDS011;14973;51.460;7.008;2022-12-07T07:08:43;52.28;;;19.50;;
27533;SDS011;14973;51.460;7.008;2022-12-07T07:11:09;49.47;;;19.88;;
27533;SDS011;14973;51.460;7.008;2022-12-07T07:13:35;44.60;;;19.65;;
27533;SDS011;14973;51.460;7.008;2022-12-07T07:16:01;54.97;;;24.33;;
27533;SDS011;14973;51.460;7.008;2022-12-07T07:18:27;55.55;;;23.33;;
27533;SDS011;14973;51.460;7.008;2022-12-07T07:20:53;57.38;;;23.00;;
27533;SDS011;14973;51.460;7.008;2022-12-07T07:23:19;66.40;;;25.85;;
27533;SDS011;14973;51.460;7.008;2022-12-07T07:25:46;55.67;;;24.45;;
27533;SDS011;14973;51.460;7.008;2022-12-07T07:28:12;61.75;;;24.10;;
27533;SDS011;14973;51.460;7.008;2022-12-07T07:30:38;59.88;;;22.75;;
27533;SDS011;14973;51.460;7.008;2022-12-07T07:33:04;59.90;;;21.23;;
27533;SDS011;14973;51.460;7.008;2022-12-07T07:35:30;52.20;;;22.70;;
27533;SDS011;14973;51.460;7.008;2022-12-07T07:37:57;55.03;;;21.42;;
27533;SDS011;14973;51.460;7.008;2022-12-07T07:40:24;56.72;;;21.50;;
27533;SDS011;14973;51.460;7.008;2022-12-07T07:42:51;57.65;;;22.83;;
27533;SDS011;14973;51.460;7.008;2022-12-07T07:45:18;49.38;;;21.00;;
27533;SDS011;14973;51.460;7.008;2022-12-07T07:47:44;50.15;;;21.67;;
27533;SDS011;14973;51.460;7.008;2022-12-07T07:50:10;49.58;;;21.08;;
27533;SDS011;14973;51.460;7.008;2022-12-07T07:52:35;52.83;;;22.27;;
27533;SDS011;14973;51.460;7.008;2022-12-07T07:55:01;49.70;;;20.27;;
27533;SDS011;14973;51.460;7.008;2022-12-07T07:57:27;47.22;;;20.13;;
27533;SDS011;14973;51.460;7.008;2022-12-07T07:59:53;48.50;;;20.15;;
27533;SDS011;14973;51.460;7.008;2022-12-07T08:02:19;40.63;;;19.42;;
27533;SDS011;14973;51.460;7.008;2022-12-07T08:04:45;43.88;;;20.20;;
27533;SDS011;14973;51.460;7.008;2022-12-07T08:07:11;46.17;;;20.50;;
27533;SDS011;14973;51.460;7.008;2022-12-07T08:09:38;48.92;;;19.77;;
27533;SDS011;14973;51.460;7.008;2022-12-07T08:12:04;44.05;;;18.98;;
27533;SDS011;14973;51.460;7.008;2022-12-07T08:14:30;42.58;;;18.63;;
27533;SDS011;14973;51.460;7.008;2022-12-07T08:16:56;39.10;;;18.08;;
27533;SDS011;14973;51.460;7.008;2022-12-07T08:19:22;40.03;;;18.95;;
27533;SDS011;14973;51.460;7.008;2022-12-07T08:21:48;44.95;;;17.38;;
27533;SDS011;14973;51.460;7.008;2022-12-07T08:24:14;40.92;;;16.48;;
27533;SDS011;14973;51.460;7.008;2022-12-07T08:26:40;37.78;;;17.00;;
27533;SDS011;14973;51.460;7.008;2022-12-07T08:29:06;40.55;;;17.95;;
27533;SDS011;14973;51.460;7.008;2022-12-07T08:31:32;40.40;;;15.85;;
27533;SDS011;14973;51.460;7.008;2022-12-07T08:33:58;30.80;;;16.67;;
27533;SDS011;14973;51.460;7.008;2022-12-07T08:36:24;33.17;;;15.02;;
27533;SDS011;14973;51.460;7.008;2022-12-07T08:38:51;38.03;;;16.08;;
27533;SDS011;14973;51.460;7.008;2022-12-07T08:41:16;37.38;;;15.60;;
27533;SDS011;14973;51.460;7.008;2022-12-07T08:43:42;37.33;;;15.20;;
27533;SDS011;14973;51.460;7.008;2022-12-07T08:46:11;31.75;;;14.50;;
27533;SDS011;14973;51.460;7.008;2022-12-07T08:48:49;38.85;;;15.77;;
27533;SDS011;14973;51.460;7.008;2022-12-07T08:51:20;32.38;;;15.00;;
27533;SDS011;14973;51.460;7.008;2022-12-07T08:53:47;32.28;;;15.93;;
27533;SDS011;14973;51.460;7.008;2022-12-07T08:56:14;34.40;;;15.43;;
27533;SDS011;14973;51.460;7.008;2022-12-07T08:58:41;36.10;;;15.70;;
27533;SDS011;14973;51.460;7.008;2022-12-07T09:01:07;31.05;;;14.20;;
27533;SDS011;14973;51.460;7.008;2022-12-07T09:03:33;35.38;;;13.82;;
27533;SDS011;14973;51.460;7.008;2022-12-07T09:05:59;32.38;;;14.48;;
27533;SDS011;14973;51.460;7.008;2022-12-07T09:08:26;26.13;;;13.15;;
27533;SDS011;14973;51.460;7.008;2022-12-07T09:10:58;43.05;;;14.13;;
27533;SDS011;14973;51.460;7.008;2022-12-07T09:13:23;27.20;;;12.18;;
27533;SDS011;14973;51.460;7.008;2022-12-07T09:15:49;34.83;;;14.68;;
27533;SDS011;14973;51.460;7.008;2022-12-07T09:18:15;42.47;;;14.52;;
27533;SDS011;14973;51.460;7.008;2022-12-07T09:20:40;36.97;;;13.88;;
27533;SDS011;14973;51.460;7.008;2022-12-07T09:23:06;26.92;;;13.23;;
27533;SDS011;14973;51.460;7.008;2022-12-07T09:25:32;31.02;;;13.23;;
27533;SDS011;14973;51.460;7.008;2022-12-07T09:27:59;27.85;;;13.20;;
27533;SDS011;14973;51.460;7.008;2022-12-07T09:30:26;31.35;;;13.23;;
27533;SDS011;14973;51.460;7.008;2022-12-07T09:32:52;26.92;;;12.48;;
27533;SDS011;14973;51.460;7.008;2022-12-07T09:35:19;27.23;;;13.27;;
27533;SDS011;14973;51.460;7.008;2022-12-07T09:37:45;32.47;;;13.27;;
27533;SDS011;14973;51.460;7.008;2022-12-07T09:40:12;24.63;;;12.27;;
27533;SDS011;14973;51.460;7.008;2022-12-07T09:42:41;27.25;;;12.60;;
27533;SDS011;14973;51.460;7.008;2022-12-07T09:45:20;36.97;;;13.85;;
27533;SDS011;14973;51.460;7.008;2022-12-07T09:47:52;27.27;;;12.25;;
27533;SDS011;14973;51.460;7.008;2022-12-07T09:50:23;36.03;;;13.27;;
27533;SDS011;14973;51.460;7.008;2022-12-07T09:52:51;30.25;;;11.50;;
27533;SDS011;14973;51.460;7.008;2022-12-07T09:55:19;22.73;;;11.65;;
27533;SDS011;14973;51.460;7.008;2022-12-07T09:57:49;44.67;;;12.48;;
27533;SDS011;14973;51.460;7.008;2022-12-07T10:00:19;29.67;;;11.65;;
27533;SDS011;14973;51.460;7.008;2022-12-07T10:02:48;39.15;;;12.73;;
27533;SDS011;14973;51.460;7.008;2022-12-07T10:05:21;29.50;;;11.65;;
27533;SDS011;14973;51.460;7.008;2022-12-07T10:07:55;34.45;;;12.88;;
27533;SDS011;14973;51.460;7.008;2022-12-07T10:10:26;42.05;;;12.65;;
27533;SDS011;14973;51.460;7.008;2022-12-07T10:18:18;25.55;;;11.05;;
27533;SDS011;14973;51.460;7.008;2022-12-07T10:20:49;25.92;;;10.45;;
27533;SDS011;14973;51.460;7.008;2022-12-07T10:23:27;27.80;;;11.48;;
27533;SDS011;14973;51.460;7.008;2022-12-07T10:25:53;30.95;;;10.70;;
27533;SDS011;14973;51.460;7.008;2022-12-07T10:28:20;26.40;;;10.30;;
27533;SDS011;14973;51.460;7.008;2022-12-07T10:35:54;23.77;;;10.63;;
27533;SDS011;14973;51.460;7.008;2022-12-07T10:38:20;33.47;;;10.90;;
27533;SDS011;14973;51.460;7.008;2022-12-07T10:40:46;21.95;;;9.10;;
27533;SDS011;14973;51.460;7.008;2022-12-07T10:53:34;29.55;;;8.13;;
27533;SDS011;14973;51.460;7.008;2022-12-07T10:56:23;29.73;;;8.95;;
27533;SDS011;14973;51.460;7.008;2022-12-07T11:01:45;36.70;;;9.32;;
27533;SDS011;14973;51.460;7.008;2022-12-07T11:07:39;31.85;;;9.77;;
27533;SDS011;14973;51.460;7.008;2022-12-07T11:18:01;23.77;;;8.85;;
27533;SDS011;14973;51.460;7.008;2022-12-07T11:20:53;23.65;;;9.23;;
27533;SDS011;14973;51.460;7.008;2022-12-07T11:23:55;32.95;;;10.15;;
27533;SDS011;14973;51.460;7.008;2022-12-07T11:26:43;35.13;;;9.20;;
27533;SDS011;14973;51.460;7.008;2022-12-07T11:29:26;21.38;;;8.95;;
27533;SDS011;14973;51.460;7.008;2022-12-07T11:32:00;26.77;;;8.00;;
27533;SDS011;14973;51.460;7.008;2022-12-07T11:37:20;25.83;;;8.65;;
27533;SDS011;14973;51.460;7.008;2022-12-07T11:39:51;18.88;;;8.02;;
27533;SDS011;14973;51.460;7.008;2022-12-07T11:42:21;29.40;;;9.75;;
27533;SDS011;14973;51.460;7.008;2022-12-07T11:44:53;20.35;;;9.23;;
27533;SDS011;14973;51.460;7.008;2022-12-07T11:47:45;29.98;;;9.35;;
27533;SDS011;14973;51.460;7.008;2022-12-07T11:52:58;26.73;;;9.63;;
27533;SDS011;14973;51.460;7.008;2022-12-07T11:58:11;21.42;;;8.05;;
27533;SDS011;14973;51.460;7.008;2022-12-07T12:00:46;31.13;;;7.65;;
27533;SDS011;14973;51.460;7.008;2022-12-07T12:03:21;17.30;;;7.57;;
27533;SDS011;14973;51.460;7.008;2022-12-07T12:05:56;25.90;;;6.88;;
27533;SDS011;14973;51.460;7.008;2022-12-07T12:08:33;23.40;;;6.85;;
27533;SDS011;14973;51.460;7.008;2022-12-07T12:11:11;43.55;;;6.97;;
27533;SDS011;14973;51.460;7.008;2022-12-07T12:16:09;26.35;;;8.30;;
27533;SDS011;14973;51.460;7.008;2022-12-07T12:18:46;28.45;;;8.07;;
27533;SDS011;14973;51.460;7.008;2022-12-07T12:21:22;16.17;;;6.47;;
27533;SDS011;14973;51.460;7.008;2022-12-07T12:26:34;21.77;;;7.30;;
27533;SDS011;14973;51.460;7.008;2022-12-07T12:29:03;29.80;;;8.23;;
27533;SDS011;14973;51.460;7.008;2022-12-07T12:31:35;17.65;;;7.90;;
27533;SDS011;14973;51.460;7.008;2022-12-07T12:34:10;17.75;;;6.57;;
27533;SDS011;14973;51.460;7.008;2022-12-07T12:37:13;20.08;;;6.63;;
27533;SDS011;14973;51.460;7.008;2022-12-07T12:42:44;27.85;;;6.97;;
27533;SDS011;14973;51.460;7.008;2022-12-07T12:45:20;20.08;;;6.07;;
27533;SDS011;14973;51.460;7.008;2022-12-07T12:47:57;22.23;;;6.45;;
27533;SDS011;14973;51.460;7.008;2022-12-07T12:50:49;33.63;;;7.45;;
27533;SDS011;14973;51.460;7.008;2022-12-07T12:53:58;18.38;;;6.63;;
27533;SDS011;14973;51.460;7.008;2022-12-07T13:01:54;26.02;;;6.15;;
27533;SDS011;14973;51.460;7.008;2022-12-07T13:04:28;20.63;;;7.07;;
27533;SDS011;14973;51.460;7.008;2022-12-07T13:06:59;21.05;;;6.10;;
27533;SDS011;14973;51.460;7.008;2022-12-07T13:09:28;18.00;;;6.68;;
27533;SDS011;14973;51.460;7.008;2022-12-07T13:12:01;18.23;;;6.75;;
27533;SDS011;14973;51.460;7.008;2022-12-07T13:19:57;12.98;;;6.07;;
27533;SDS011;14973;51.460;7.008;2022-12-07T13:25:05;18.75;;;6.00;;
27533;SDS011;14973;51.460;7.008;2022-12-07T13:27:33;27.23;;;6.30;;
27533;SDS011;14973;51.460;7.008;2022-12-07T13:30:03;20.10;;;6.72;;
27533;SDS011;14973;51.460;7.008;2022-12-07T13:32:56;18.25;;;6.10;;
27533;SDS011;14973;51.460;7.008;2022-12-07T13:35:27;16.30;;;6.07;;
27533;SDS011;14973;51.460;7.008;2022-12-07T13:38:05;16.88;;;6.55;;
27533;SDS011;14973;51.460;7.008;2022-12-07T13:40:39;12.55;;;5.93;;
27533;SDS011;14973;51.460;7.008;2022-12-07T13:43:12;15.98;;;6.35;;
27533;SDS011;14973;51.460;7.008;2022-12-07T13:48:26;33.30;;;7.07;;
27533;SDS011;14973;51.460;7.008;2022-12-07T13:50:59;19.50;;;5.70;;
27533;SDS011;14973;51.460;7.008;2022-12-07T13:53:26;13.15;;;6.13;;
27533;SDS011;14973;51.460;7.008;2022-12-07T13:55:58;22.25;;;5.70;;
27533;SDS011;14973;51.460;7.008;2022-12-07T13:58:30;21.80;;;5.40;;
27533;SDS011;14973;51.460;7.008;2022-12-07T14:00:57;15.80;;;5.10;;
27533;SDS011;14973;51.460;7.008;2022-12-07T14:03:27;11.55;;;5.05;;
27533;SDS011;14973;51.460;7.008;2022-12-07T14:08:38;12.30;;;5.00;;
27533;SDS011;14973;51.460;7.008;2022-12-07T14:11:04;18.58;;;5.90;;
27533;SDS011;14973;51.460;7.008;2022-12-07T14:16:33;22.40;;;6.22;;
27533;SDS011;14973;51.460;7.008;2022-12-07T14:19:05;19.75;;;6.40;;
27533;SDS011;14973;51.460;7.008;2022-12-07T14:22:05;26.63;;;7.10;;
27533;SDS011;14973;51.460;7.008;2022-12-07T14:24:41;17.13;;;6.30;;
27533;SDS011;14973;51.460;7.008;2022-12-07T14:27:16;15.55;;;6.10;;
27533;SDS011;14973;51.460;7.008;2022-12-07T14:29:47;22.52;;;6.15;;
27533;SDS011;14973;51.460;7.008;2022-12-07T14:32:20;16.15;;;5.00;;
27533;SDS011;14973;51.460;7.008;2022-12-07T14:37:33;17.13;;;5.85;;
27533;SDS011;14973;51.460;7.008;2022-12-07T14:39:59;16.17;;;5.35;;
27533;SDS011;14973;51.460;7.008;2022-12-07T14:42:26;15.88;;;5.32;;
27533;SDS011;14973;51.460;7.008;2022-12-07T14:44:56;15.07;;;5.80;;
27533;SDS011;14973;51.460;7.008;2022-12-07T14:47:22;24.00;;;5.40;;
27533;SDS011;14973;51.460;7.008;2022-12-07T14:49:48;14.27;;;5.55;;
27533;SDS011;14973;51.460;7.008;2022-12-07T14:52:21;20.63;;;5.63;;
27533;SDS011;14973;51.460;7.008;2022-12-07T14:54:51;22.25;;;5.57;;
27533;SDS011;14973;51.460;7.008;2022-12-07T14:57:17;13.75;;;5.25;;
27533;SDS011;14973;51.460;7.008;2022-12-07T14:59:43;18.25;;;5.03;;
27533;SDS011;14973;51.460;7.008;2022-12-07T15:02:10;20.15;;;5.90;;
27533;SDS011;14973;51.460;7.008;2022-12-07T15:04:37;20.17;;;5.97;;
27533;SDS011;14973;51.460;7.008;2022-12-07T15:07:04;13.38;;;6.10;;
27533;SDS011;14973;51.460;7.008;2022-12-07T15:09:31;21.30;;;7.45;;
27533;SDS011;14973;51.460;7.008;2022-12-07T15:11:57;18.92;;;6.43;;
27533;SDS011;14973;51.460;7.008;2022-12-07T15:14:23;24.88;;;6.05;;
27533;SDS011;14973;51.460;7.008;2022-12-07T15:16:48;29.25;;;6.10;;
27533;SDS011;14973;51.460;7.008;2022-12-07T15:19:15;17.70;;;5.32;;
27533;SDS011;14973;51.460;7.008;2022-12-07T15:21:48;21.17;;;5.88;;
27533;SDS011;14973;51.460;7.008;2022-12-07T15:24:14;27.85;;;5.53;;
27533;SDS011;14973;51.460;7.008;2022-12-07T15:26:40;15.80;;;5.60;;
27533;SDS011;14973;51.460;7.008;2022-12-07T15:29:06;16.80;;;6.28;;
27533;SDS011;14973;51.460;7.008;2022-12-07T15:31:32;17.20;;;5.45;;
27533;SDS011;14973;51.460;7.008;2022-12-07T15:33:59;22.52;;;4.85;;
27533;SDS011;14973;51.460;7.008;2022-12-07T15:36:26;11.93;;;4.90;;
27533;SDS011;14973;51.460;7.008;2022-12-07T15:38:53;20.02;;;5.70;;
27533;SDS011;14973;51.460;7.008;2022-12-07T15:41:19;17.27;;;5.60;;
27533;SDS011;14973;51.460;7.008;2022-12-07T15:43:45;14.60;;;5.40;;
27533;SDS011;14973;51.460;7.008;2022-12-07T15:46:33;22.05;;;6.00;;
27533;SDS011;14973;51.460;7.008;2022-12-07T15:49:04;15.50;;;5.40;;
27533;SDS011;14973;51.460;7.008;2022-12-07T15:51:33;23.75;;;7.03;;
27533;SDS011;14973;51.460;7.008;2022-12-07T15:53:58;13.23;;;5.43;;
27533;SDS011;14973;51.460;7.008;2022-12-07T15:56:24;14.40;;;5.32;;
27533;SDS011;14973;51.460;7.008;2022-12-07T15:58:50;22.85;;;6.88;;
27533;SDS011;14973;51.460;7.008;2022-12-07T16:01:17;30.05;;;6.72;;
27533;SDS011;14973;51.460;7.008;2022-12-07T16:03:44;23.00;;;6.13;;
27533;SDS011;14973;51.460;7.008;2022-12-07T16:06:10;22.80;;;5.95;;
27533;SDS011;14973;51.460;7.008;2022-12-07T16:08:36;22.02;;;6.55;;
27533;SDS011;14973;51.460;7.008;2022-12-07T16:11:06;23.85;;;8.82;;
27533;SDS011;14973;51.460;7.008;2022-12-07T16:13:32;18.25;;;6.20;;
27533;SDS011;14973;51.460;7.008;2022-12-07T16:16:01;25.25;;;7.68;;
27533;SDS011;14973;51.460;7.008;2022-12-07T16:18:28;23.05;;;7.38;;
27533;SDS011;14973;51.460;7.008;2022-12-07T16:20:54;20.42;;;7.07;;
27533;SDS011;14973;51.460;7.008;2022-12-07T16:23:19;18.20;;;7.88;;
27533;SDS011;14973;51.460;7.008;2022-12-07T16:25:45;28.42;;;9.50;;